sensor_id;sensor_type;location;lat;lon;timestamp;P1;durP1;ratioP1;P2;durP2;ratioP2
19131;SDS011;9698;51.976;7.570;2023-04-09T15:30:58;12.47;;;8.20;;
19131;SDS011;9698;51.976;7.570;2023-04-09T15:33:26;15.90;;;10.37;;
19131;SDS011;9698;51.976;7.570;2023-04-09T15:35:53;12.03;;;7.90;;
19131;SDS011;9698;51.976;7.570;2023-04-09T15:38:22;10.27;;;7.67;;
19131;SDS011;9698;51.976;7.570;2023-04-09T15:40:50;10.17;;;8.03;;
19131;SDS011;9698;51.976;7.570;2023-04-09T15:43:18;10.40;;;7.23;;
19131;SDS011;9698;51.976;7.570;2023-04-09T15:45:46;12.70;;;8.70;;
19131;SDS011;9698;51.976;7.570;2023-04-09T15:48:13;9.67;;;7.60;;
19131;SDS011;9698;51.976;7.570;2023-04-09T15:50:41;13.37;;;8.83;;
19131;SDS011;9698;51.976;7.570;2023-04-09T15:53:09;11.60;;;8.40;;
19131;SDS011;9698;51.976;7.570;2023-04-09T15:55:42;12.97;;;9.70;;
19131;SDS011;9698;51.976;7.570;2023-04-09T15:58:10;11.20;;;7.80;;
19131;SDS011;9698;51.976;7.570;2023-04-09T16:00:40;15.37;;;10.30;;
19131;SDS011;9698;51.976;7.570;2023-04-09T16:03:08;10.03;;;7.80;;
19131;SDS011;9698;51.976;7.570;2023-04-09T16:05:36;12.97;;;9.20;;
19131;SDS011;9698;51.976;7.570;2023-04-09T16:08:04;11.73;;;9.00;;
19131;SDS011;9698;51.976;7.570;2023-04-09T16:10:32;9.57;;;8.27;;
19131;SDS011;9698;51.976;7.570;2023-04-09T16:13:00;9.30;;;7.63;;
19131;SDS011;9698;51.976;7.570;2023-04-09T16:15:28;10.60;;;8.03;;
19131;SDS011;9698;51.976;7.570;2023-04-09T16:17:57;11.57;;;8.23;;
19131;SDS011;9698;51.976;7.570;2023-04-09T16:20:28;9.80;;;7.90;;
19131;SDS011;9698;51.976;7.570;2023-04-09T16:22:56;8.43;;;7.40;;
19131;SDS011;9698;51.976;7.570;2023-04-09T16:25:24;9.60;;;8.40;;
19131;SDS011;9698;51.976;7.570;2023-04-09T16:27:52;10.60;;;8.20;;
19131;SDS011;9698;51.976;7.570;2023-04-09T16:30:20;11.03;;;7.83;;
19131;SDS011;9698;51.976;7.570;2023-04-09T16:32:47;9.90;;;8.10;;
19131;SDS011;9698;51.976;7.570;2023-04-09T16:35:15;11.07;;;8.80;;
19131;SDS011;9698;51.976;7.570;2023-04-09T16:37:44;11.63;;;9.57;;
19131;SDS011;9698;51.976;7.570;2023-04-09T16:40:12;12.43;;;9.37;;
19131;SDS011;9698;51.976;7.570;2023-04-09T16:42:40;11.97;;;10.10;;
19131;SDS011;9698;51.976;7.570;2023-04-09T16:45:09;12.27;;;9.13;;
19131;SDS011;9698;51.976;7.570;2023-04-09T16:47:37;13.20;;;9.43;;
19131;SDS011;9698;51.976;7.570;2023-04-09T16:50:07;13.47;;;9.80;;
19131;SDS011;9698;51.976;7.570;2023-04-09T16:52:37;12.20;;;9.70;;
19131;SDS011;9698;51.976;7.570;2023-04-09T16:55:06;13.17;;;9.80;;
19131;SDS011;9698;51.976;7.570;2023-04-09T16:57:35;11.63;;;9.77;;
19131;SDS011;9698;51.976;7.570;2023-04-09T17:00:04;12.47;;;9.87;;
19131;SDS011;9698;51.976;7.570;2023-04-09T17:02:34;12.70;;;10.17;;
19131;SDS011;9698;51.976;7.570;2023-04-09T17:05:03;11.87;;;9.57;;
19131;SDS011;9698;51.976;7.570;2023-04-09T17:07:32;13.87;;;11.00;;
19131;SDS011;9698;51.976;7.570;2023-04-09T17:10:01;10.93;;;9.33;;
19131;SDS011;9698;51.976;7.570;2023-04-09T17:12:29;11.17;;;8.90;;
19131;SDS011;9698;51.976;7.570;2023-04-09T17:14:57;11.23;;;8.67;;
19131;SDS011;9698;51.976;7.570;2023-04-09T17:17:26;11.00;;;9.00;;
19131;SDS011;9698;51.976;7.570;2023-04-09T17:19:54;11.03;;;9.83;;
19131;SDS011;9698;51.976;7.570;2023-04-09T17:22:23;11.50;;;9.33;;
19131;SDS011;9698;51.976;7.570;2023-04-09T17:24:51;10.97;;;8.70;;
19131;SDS011;9698;51.976;7.570;2023-04-09T17:27:19;13.37;;;9.70;;
19131;SDS011;9698;51.976;7.570;2023-04-09T17:29:47;12.67;;;9.60;;
19131;SDS011;9698;51.976;7.570;2023-04-09T17:32:14;10.63;;;9.10;;
19131;SDS011;9698;51.976;7.570;2023-04-09T17:34:46;12.83;;;9.90;;
19131;SDS011;9698;51.976;7.570;2023-04-09T17:37:14;13.43;;;9.90;;
19131;SDS011;9698;51.976;7.570;2023-04-09T17:39:42;16.63;;;12.20;;
19131;SDS011;9698;51.976;7.570;2023-04-09T17:42:10;12.90;;;10.23;;
19131;SDS011;9698;51.976;7.570;2023-04-09T17:44:38;13.77;;;10.20;;
19131;SDS011;9698;51.976;7.570;2023-04-09T17:47:06;15.47;;;10.07;;
19131;SDS011;9698;51.976;7.570;2023-04-09T17:49:34;13.50;;;10.23;;
19131;SDS011;9698;51.976;7.570;2023-04-09T17:52:02;13.27;;;10.27;;
19131;SDS011;9698;51.976;7.570;2023-04-09T17:54:31;13.50;;;10.30;;
19131;SDS011;9698;51.976;7.570;2023-04-09T17:57:00;13.30;;;9.90;;
19131;SDS011;9698;51.976;7.570;2023-04-09T17:59:31;18.00;;;11.30;;
19131;SDS011;9698;51.976;7.570;2023-04-09T18:01:59;14.60;;;10.77;;
19131;SDS011;9698;51.976;7.570;2023-04-09T18:04:28;15.27;;;10.13;;
19131;SDS011;9698;51.976;7.570;2023-04-09T18:06:57;12.63;;;9.33;;
19131;SDS011;9698;51.976;7.570;2023-04-09T18:09:25;14.00;;;10.37;;
19131;SDS011;9698;51.976;7.570;2023-04-09T18:11:53;12.80;;;10.27;;
19131;SDS011;9698;51.976;7.570;2023-04-09T18:14:22;13.03;;;10.80;;
19131;SDS011;9698;51.976;7.570;2023-04-09T18:16:50;12.43;;;9.97;;
19131;SDS011;9698;51.976;7.570;2023-04-09T18:19:18;21.80;;;13.37;;
19131;SDS011;9698;51.976;7.570;2023-04-09T18:22:06;16.87;;;11.13;;
19131;SDS011;9698;51.976;7.570;2023-04-09T18:24:34;17.17;;;12.90;;
19131;SDS011;9698;51.976;7.570;2023-04-09T18:27:02;17.80;;;13.00;;
19131;SDS011;9698;51.976;7.570;2023-04-09T18:29:31;19.87;;;12.90;;
19131;SDS011;9698;51.976;7.570;2023-04-09T18:31:59;22.73;;;14.50;;
19131;SDS011;9698;51.976;7.570;2023-04-09T18:34:46;17.30;;;12.90;;
19131;SDS011;9698;51.976;7.570;2023-04-09T18:37:14;17.37;;;13.30;;
19131;SDS011;9698;51.976;7.570;2023-04-09T18:39:42;23.63;;;15.43;;
19131;SDS011;9698;51.976;7.570;2023-04-09T18:42:11;19.03;;;13.60;;
19131;SDS011;9698;51.976;7.570;2023-04-09T18:44:39;22.87;;;15.30;;
19131;SDS011;9698;51.976;7.570;2023-04-09T18:47:07;18.40;;;13.00;;
19131;SDS011;9698;51.976;7.570;2023-04-09T18:49:36;22.50;;;15.53;;
19131;SDS011;9698;51.976;7.570;2023-04-09T18:52:04;20.20;;;14.10;;
19131;SDS011;9698;51.976;7.570;2023-04-09T18:54:34;20.47;;;15.10;;
19131;SDS011;9698;51.976;7.570;2023-04-09T18:57:03;19.23;;;14.53;;
19131;SDS011;9698;51.976;7.570;2023-04-09T18:59:32;23.13;;;16.83;;
19131;SDS011;9698;51.976;7.570;2023-04-09T19:02:01;25.43;;;17.50;;
19131;SDS011;9698;51.976;7.570;2023-04-09T19:04:32;25.00;;;17.53;;
19131;SDS011;9698;51.976;7.570;2023-04-09T19:07:02;23.97;;;17.67;;
19131;SDS011;9698;51.976;7.570;2023-04-09T19:09:31;27.87;;;19.83;;
19131;SDS011;9698;51.976;7.570;2023-04-09T19:11:59;27.53;;;18.77;;
19131;SDS011;9698;51.976;7.570;2023-04-09T19:14:46;28.87;;;20.73;;
19131;SDS011;9698;51.976;7.570;2023-04-09T19:17:15;25.90;;;17.50;;
19131;SDS011;9698;51.976;7.570;2023-04-09T19:19:43;26.47;;;18.20;;
19131;SDS011;9698;51.976;7.570;2023-04-09T19:22:10;26.40;;;17.50;;
19131;SDS011;9698;51.976;7.570;2023-04-09T19:24:39;25.80;;;17.80;;
19131;SDS011;9698;51.976;7.570;2023-04-09T19:27:10;27.63;;;18.83;;
19131;SDS011;9698;51.976;7.570;2023-04-09T19:29:39;29.83;;;19.43;;
19131;SDS011;9698;51.976;7.570;2023-04-09T19:32:07;27.17;;;20.03;;
19131;SDS011;9698;51.976;7.570;2023-04-09T19:34:37;27.77;;;19.50;;
19131;SDS011;9698;51.976;7.570;2023-04-09T19:37:06;29.40;;;20.00;;
19131;SDS011;9698;51.976;7.570;2023-04-09T19:39:34;29.40;;;21.00;;
19131;SDS011;9698;51.976;7.570;2023-04-09T19:42:02;31.03;;;21.50;;
19131;SDS011;9698;51.976;7.570;2023-04-09T19:44:30;32.73;;;22.23;;
19131;SDS011;9698;51.976;7.570;2023-04-09T19:46:58;32.93;;;23.90;;
19131;SDS011;9698;51.976;7.570;2023-04-09T19:49:26;36.47;;;24.63;;
19131;SDS011;9698;51.976;7.570;2023-04-09T19:51:54;37.67;;;25.27;;
19131;SDS011;9698;51.976;7.570;2023-04-09T19:54:25;40.97;;;27.40;;
19131;SDS011;9698;51.976;7.570;2023-04-09T19:56:53;38.57;;;27.17;;
19131;SDS011;9698;51.976;7.570;2023-04-09T19:59:21;46.20;;;32.63;;
19131;SDS011;9698;51.976;7.570;2023-04-09T20:02:09;41.87;;;30.63;;
19131;SDS011;9698;51.976;7.570;2023-04-09T20:04:37;47.90;;;33.70;;
19131;SDS011;9698;51.976;7.570;2023-04-09T20:07:05;50.53;;;34.03;;
19131;SDS011;9698;51.976;7.570;2023-04-09T20:09:34;48.33;;;33.63;;
19131;SDS011;9698;51.976;7.570;2023-04-09T20:12:07;49.13;;;32.53;;
19131;SDS011;9698;51.976;7.570;2023-04-09T20:14:35;49.53;;;33.20;;
19131;SDS011;9698;51.976;7.570;2023-04-09T20:17:04;53.97;;;35.40;;
19131;SDS011;9698;51.976;7.570;2023-04-09T20:19:34;56.87;;;37.57;;
19131;SDS011;9698;51.976;7.570;2023-04-09T20:22:04;60.87;;;39.57;;
19131;SDS011;9698;51.976;7.570;2023-04-09T20:24:31;62.00;;;40.83;;
19131;SDS011;9698;51.976;7.570;2023-04-09T20:27:00;58.90;;;39.93;;
19131;SDS011;9698;51.976;7.570;2023-04-09T20:29:29;62.10;;;41.87;;
19131;SDS011;9698;51.976;7.570;2023-04-09T20:31:57;65.17;;;41.60;;
19131;SDS011;9698;51.976;7.570;2023-04-09T20:34:25;70.30;;;44.93;;
19131;SDS011;9698;51.976;7.570;2023-04-09T20:36:53;68.10;;;44.40;;
19131;SDS011;9698;51.976;7.570;2023-04-09T20:39:21;70.00;;;46.57;;
19131;SDS011;9698;51.976;7.570;2023-04-09T20:41:52;74.27;;;48.13;;
19131;SDS011;9698;51.976;7.570;2023-04-09T20:44:21;72.10;;;48.27;;
19131;SDS011;9698;51.976;7.570;2023-04-09T20:46:50;69.53;;;46.93;;
19131;SDS011;9698;51.976;7.570;2023-04-09T20:49:36;70.57;;;47.93;;
19131;SDS011;9698;51.976;7.570;2023-04-09T20:52:04;70.07;;;46.20;;
19131;SDS011;9698;51.976;7.570;2023-04-09T20:54:35;66.80;;;44.77;;
19131;SDS011;9698;51.976;7.570;2023-04-09T20:59:51;63.93;;;43.73;;
19131;SDS011;9698;51.976;7.570;2023-04-09T21:02:19;62.70;;;41.23;;
19131;SDS011;9698;51.976;7.570;2023-04-09T21:04:48;61.90;;;40.13;;
19131;SDS011;9698;51.976;7.570;2023-04-09T21:07:15;62.87;;;40.07;;
19131;SDS011;9698;51.976;7.570;2023-04-09T21:09:44;59.67;;;39.63;;
19131;SDS011;9698;51.976;7.570;2023-04-09T21:12:12;55.70;;;36.80;;
19131;SDS011;9698;51.976;7.570;2023-04-09T21:14:40;54.80;;;35.90;;
19131;SDS011;9698;51.976;7.570;2023-04-09T21:17:08;55.80;;;37.27;;
19131;SDS011;9698;51.976;7.570;2023-04-09T21:19:36;62.63;;;38.87;;
19131;SDS011;9698;51.976;7.570;2023-04-09T21:22:04;56.07;;;37.13;;
19131;SDS011;9698;51.976;7.570;2023-04-09T21:24:33;55.13;;;37.20;;
19131;SDS011;9698;51.976;7.570;2023-04-09T21:27:01;53.50;;;35.80;;
19131;SDS011;9698;51.976;7.570;2023-04-09T21:29:32;52.97;;;34.47;;
19131;SDS011;9698;51.976;7.570;2023-04-09T21:32:00;54.17;;;36.37;;
19131;SDS011;9698;51.976;7.570;2023-04-09T21:34:28;61.77;;;41.60;;
19131;SDS011;9698;51.976;7.570;2023-04-09T21:36:56;60.63;;;39.83;;
19131;SDS011;9698;51.976;7.570;2023-04-09T21:39:42;60.03;;;41.13;;
19131;SDS011;9698;51.976;7.570;2023-04-09T21:42:13;66.73;;;42.00;;
19131;SDS011;9698;51.976;7.570;2023-04-09T21:44:41;67.37;;;44.13;;
19131;SDS011;9698;51.976;7.570;2023-04-09T21:47:09;61.03;;;40.03;;
19131;SDS011;9698;51.976;7.570;2023-04-09T21:49:37;59.37;;;39.73;;
19131;SDS011;9698;51.976;7.570;2023-04-09T21:52:05;64.43;;;41.13;;
19131;SDS011;9698;51.976;7.570;2023-04-09T21:54:39;63.20;;;39.47;;
19131;SDS011;9698;51.976;7.570;2023-04-09T21:57:07;58.53;;;39.47;;
19131;SDS011;9698;51.976;7.570;2023-04-09T21:59:34;60.80;;;38.93;;
19131;SDS011;9698;51.976;7.570;2023-04-09T22:02:02;59.47;;;39.23;;
19131;SDS011;9698;51.976;7.570;2023-04-09T22:04:31;55.57;;;37.07;;
19131;SDS011;9698;51.976;7.570;2023-04-09T22:07:00;55.23;;;37.07;;
19131;SDS011;9698;51.976;7.570;2023-04-09T22:09:28;60.30;;;38.50;;
19131;SDS011;9698;51.976;7.570;2023-04-09T22:11:56;59.17;;;38.27;;
19131;SDS011;9698;51.976;7.570;2023-04-09T22:14:25;54.83;;;37.10;;
19131;SDS011;9698;51.976;7.570;2023-04-09T22:16:54;58.73;;;37.00;;
19131;SDS011;9698;51.976;7.570;2023-04-09T22:19:24;56.23;;;35.50;;
19131;SDS011;9698;51.976;7.570;2023-04-09T22:21:52;51.40;;;33.67;;
19131;SDS011;9698;51.976;7.570;2023-04-09T22:24:20;56.73;;;37.10;;
19131;SDS011;9698;51.976;7.570;2023-04-09T22:26:51;54.23;;;34.33;;
19131;SDS011;9698;51.976;7.570;2023-04-09T22:29:19;46.80;;;31.73;;
19131;SDS011;9698;51.976;7.570;2023-04-09T22:31:47;49.87;;;32.93;;
19131;SDS011;9698;51.976;7.570;2023-04-09T22:34:15;51.50;;;32.87;;
19131;SDS011;9698;51.976;7.570;2023-04-09T22:36:48;52.57;;;33.57;;
19131;SDS011;9698;51.976;7.570;2023-04-09T22:39:16;55.33;;;35.53;;
19131;SDS011;9698;51.976;7.570;2023-04-09T22:41:44;57.87;;;38.90;;
19131;SDS011;9698;51.976;7.570;2023-04-09T22:44:12;57.77;;;38.80;;
19131;SDS011;9698;51.976;7.570;2023-04-09T22:46:40;60.13;;;40.90;;
19131;SDS011;9698;51.976;7.570;2023-04-09T22:49:07;59.27;;;39.43;;
19131;SDS011;9698;51.976;7.570;2023-04-09T22:51:37;62.33;;;41.23;;
19131;SDS011;9698;51.976;7.570;2023-04-09T22:54:07;64.03;;;42.07;;
19131;SDS011;9698;51.976;7.570;2023-04-09T22:56:35;57.80;;;39.33;;
19131;SDS011;9698;51.976;7.570;2023-04-09T22:59:24;62.57;;;40.20;;
19131;SDS011;9698;51.976;7.570;2023-04-09T23:02:05;63.03;;;39.70;;
19131;SDS011;9698;51.976;7.570;2023-04-09T23:04:33;58.53;;;40.23;;
19131;SDS011;9698;51.976;7.570;2023-04-09T23:07:01;65.40;;;42.57;;
19131;SDS011;9698;51.976;7.570;2023-04-09T23:09:29;65.10;;;41.97;;
19131;SDS011;9698;51.976;7.570;2023-04-09T23:11:57;62.63;;;41.40;;
19131;SDS011;9698;51.976;7.570;2023-04-09T23:14:26;59.53;;;39.77;;
19131;SDS011;9698;51.976;7.570;2023-04-09T23:16:54;60.10;;;40.87;;
19131;SDS011;9698;51.976;7.570;2023-04-09T23:19:23;61.47;;;40.33;;
19131;SDS011;9698;51.976;7.570;2023-04-09T23:21:50;59.60;;;39.10;;
19131;SDS011;9698;51.976;7.570;2023-04-09T23:24:18;57.93;;;37.93;;
19131;SDS011;9698;51.976;7.570;2023-04-09T23:26:46;62.30;;;41.23;;
19131;SDS011;9698;51.976;7.570;2023-04-09T23:29:14;57.93;;;39.13;;
19131;SDS011;9698;51.976;7.570;2023-04-09T23:31:42;64.17;;;40.33;;
19131;SDS011;9698;51.976;7.570;2023-04-09T23:34:27;57.67;;;38.37;;
19131;SDS011;9698;51.976;7.570;2023-04-09T23:36:55;59.47;;;39.30;;
19131;SDS011;9698;51.976;7.570;2023-04-09T23:39:23;56.97;;;39.80;;
19131;SDS011;9698;51.976;7.570;2023-04-09T23:41:52;59.77;;;39.53;;
19131;SDS011;9698;51.976;7.570;2023-04-09T23:44:20;59.00;;;38.93;;
19131;SDS011;9698;51.976;7.570;2023-04-09T23:46:47;61.57;;;39.33;;
19131;SDS011;9698;51.976;7.570;2023-04-09T23:49:16;57.40;;;39.07;;
19131;SDS011;9698;51.976;7.570;2023-04-09T23:51:44;59.33;;;40.47;;
19131;SDS011;9698;51.976;7.570;2023-04-09T23:54:12;59.63;;;38.57;;
19131;SDS011;9698;51.976;7.570;2023-04-09T23:56:39;57.73;;;39.70;;
